createdAt,value
2018-09-27T00:00:36.631Z,100.00
2018-09-27T00:03:06.724Z,100.00
2018-09-27T00:05:37.942Z,100.00
2018-09-27T00:08:08.145Z,100.00
2018-09-27T00:10:38.323Z,100.00
2018-09-27T00:13:08.497Z,100.00
2018-09-27T00:15:38.692Z,100.00
2018-09-27T00:18:08.797Z,100.00
2018-09-27T00:20:38.896Z,100.00
2018-09-27T00:23:08.985Z,100.00
2018-09-27T00:25:39.074Z,100.00
2018-09-27T00:28:09.246Z,100.00
2018-09-27T00:30:39.347Z,100.00
2018-09-27T00:33:09.449Z,100.00
2018-09-27T00:35:39.565Z,100.00
2018-09-27T00:38:09.650Z,100.00
2018-09-27T00:40:39.741Z,100.00
2018-09-27T00:43:09.902Z,100.00
2018-09-27T00:45:42.912Z,100.00
2018-09-27T00:48:15.461Z,100.00
2018-09-27T00:50:46.104Z,100.00
2018-09-27T00:53:16.242Z,100.00
2018-09-27T00:55:46.402Z,100.00
2018-09-27T00:58:16.547Z,100.00
2018-09-27T01:00:46.720Z,100.00
2018-09-27T01:03:16.827Z,100.00
2018-09-27T01:05:46.980Z,100.00
2018-09-27T01:08:17.046Z,100.00
2018-09-27T01:10:47.160Z,100.00
2018-09-27T01:13:17.237Z,100.00
2018-09-27T01:15:47.382Z,100.00
2018-09-27T01:18:17.475Z,100.00
2018-09-27T01:20:50.403Z,100.00
2018-09-27T01:23:20.456Z,100.00
2018-09-27T01:25:50.596Z,100.00
2018-09-27T01:28:20.669Z,100.00
2018-09-27T01:30:50.816Z,100.00
2018-09-27T01:33:20.929Z,100.00
2018-09-27T01:35:51.201Z,100.00
2018-09-27T01:38:21.382Z,100.00
2018-09-27T01:40:51.472Z,100.00
2018-09-27T01:43:21.556Z,100.00
2018-09-27T01:45:51.822Z,100.00
2018-09-27T01:48:21.890Z,100.00
2018-09-27T01:50:51.983Z,100.00
2018-09-27T01:53:22.088Z,100.00
2018-09-27T01:55:52.226Z,100.00
2018-09-27T01:58:22.288Z,100.00
2018-09-27T02:00:52.410Z,100.00
2018-09-27T02:03:22.469Z,100.00
2018-09-27T02:05:52.644Z,100.00
2018-09-27T02:08:22.733Z,100.00
2018-09-27T02:10:52.942Z,100.00
2018-09-27T02:13:23.030Z,100.00
2018-09-27T02:15:53.117Z,100.00
2018-09-27T02:18:23.204Z,100.00
2018-09-27T02:20:53.360Z,100.00
2018-09-27T02:23:23.435Z,100.00
2018-09-27T02:25:53.528Z,100.00
2018-09-27T02:28:23.559Z,100.00
2018-09-27T02:30:53.704Z,100.00
2018-09-27T02:33:23.769Z,100.00
2018-09-27T02:35:53.874Z,100.00
2018-09-27T02:38:23.980Z,100.00
2018-09-27T02:40:54.091Z,100.00
2018-09-27T02:43:24.177Z,100.00
2018-09-27T02:45:54.302Z,100.00
2018-09-27T02:48:24.416Z,100.00
2018-09-27T02:50:54.557Z,100.00
2018-09-27T02:53:24.616Z,100.00
2018-09-27T02:55:54.729Z,100.00
2018-09-27T02:58:24.869Z,100.00
2018-09-27T03:00:55.026Z,100.00
2018-09-27T03:03:25.138Z,100.00
2018-09-27T03:05:55.281Z,100.00
2018-09-27T03:08:25.374Z,100.00
2018-09-27T03:10:55.462Z,100.00
2018-09-27T03:13:26.714Z,100.00
2018-09-27T03:15:56.814Z,100.00
2018-09-27T03:18:26.931Z,100.00
2018-09-27T03:20:57.095Z,100.00
2018-09-27T03:23:27.106Z,100.00
2018-09-27T03:25:57.796Z,100.00
2018-09-27T03:28:27.859Z,100.00
2018-09-27T03:30:57.953Z,100.00
2018-09-27T03:33:28.013Z,100.00
2018-09-27T03:35:58.183Z,100.00
2018-09-27T03:38:28.304Z,100.00
2018-09-27T03:40:58.436Z,100.00
2018-09-27T03:43:28.626Z,100.00
2018-09-27T03:45:58.802Z,100.00
2018-09-27T03:48:28.869Z,100.00
2018-09-27T03:50:58.928Z,100.00
2018-09-27T03:53:29.053Z,100.00
2018-09-27T03:55:59.156Z,100.00
2018-09-27T03:58:29.258Z,100.00
2018-09-27T04:00:59.363Z,100.00
2018-09-27T04:03:29.495Z,100.00
2018-09-27T04:05:59.578Z,100.00
2018-09-27T04:08:29.739Z,100.00
2018-09-27T04:10:59.934Z,100.00
2018-09-27T04:13:30.095Z,100.00
2018-09-27T04:16:00.228Z,100.00
2018-09-27T04:18:30.353Z,100.00
2018-09-27T04:21:00.456Z,100.00
2018-09-27T04:23:30.534Z,100.00
2018-09-27T04:26:00.630Z,100.00
2018-09-27T04:28:30.773Z,100.00
2018-09-27T04:31:00.917Z,100.00
2018-09-27T04:33:31.080Z,100.00
2018-09-27T04:36:01.242Z,100.00
2018-09-27T04:38:31.420Z,100.00
2018-09-27T04:41:01.504Z,100.00
2018-09-27T04:43:31.708Z,100.00
2018-09-27T04:46:01.792Z,100.00
2018-09-27T04:48:32.019Z,100.00
2018-09-27T04:51:02.102Z,100.00
2018-09-27T04:53:32.208Z,100.00
2018-09-27T04:56:02.326Z,100.00
2018-09-27T04:58:32.501Z,100.00
2018-09-27T05:01:02.564Z,100.00
2018-09-27T05:03:32.670Z,100.00
2018-09-27T05:06:02.795Z,100.00
2018-09-27T05:08:32.978Z,100.00
2018-09-27T05:11:03.163Z,100.00
2018-09-27T05:13:33.312Z,100.00
2018-09-27T05:16:03.537Z,100.00
2018-09-27T05:18:38.591Z,100.00
2018-09-27T05:21:08.714Z,100.00
2018-09-27T05:23:38.869Z,100.00
2018-09-27T05:26:09.062Z,100.00
2018-09-27T05:28:39.283Z,100.00
2018-09-27T05:31:09.393Z,100.00
2018-09-27T05:33:39.581Z,100.00
2018-09-27T05:36:09.598Z,100.00
2018-09-27T05:38:39.794Z,100.00
2018-09-27T05:41:09.881Z,100.00
2018-09-27T05:43:40.007Z,100.00
2018-09-27T05:46:10.098Z,100.00
2018-09-27T05:48:40.262Z,100.00
2018-09-27T05:51:10.448Z,100.00
2018-09-27T05:53:40.567Z,100.00
2018-09-27T05:56:10.770Z,100.00
2018-09-27T05:58:40.927Z,100.00
2018-09-27T06:01:11.071Z,100.00
2018-09-27T06:03:41.279Z,100.00
2018-09-27T06:06:11.309Z,100.00
2018-09-27T06:08:41.404Z,100.00
2018-09-27T06:11:11.551Z,100.00
2018-09-27T06:13:41.649Z,100.00
2018-09-27T06:16:11.749Z,100.00
2018-09-27T06:18:41.881Z,100.00
2018-09-27T06:21:12.018Z,100.00
2018-09-27T06:23:42.118Z,100.00
2018-09-27T06:26:12.306Z,100.00
2018-09-27T06:28:42.448Z,100.00
2018-09-27T06:31:12.528Z,100.00
2018-09-27T06:33:42.711Z,100.00
2018-09-27T06:36:12.833Z,100.00
2018-09-27T06:38:42.990Z,99.90
2018-09-27T06:41:13.087Z,98.87
2018-09-27T06:43:43.213Z,97.67
2018-09-27T06:46:13.356Z,96.76
2018-09-27T06:48:43.551Z,95.99
2018-09-27T06:51:13.761Z,90.46
2018-09-27T06:53:43.903Z,81.00
2018-09-27T06:56:14.042Z,69.91
2018-09-27T06:58:44.197Z,62.83
2018-09-27T07:01:14.382Z,58.37
2018-09-27T07:03:44.534Z,53.33
2018-09-27T07:06:14.619Z,51.65
2018-09-27T07:08:44.899Z,49.27
2018-09-27T07:11:15.191Z,46.84
2018-09-27T07:13:45.385Z,45.05
2018-09-27T07:16:15.491Z,44.65
2018-09-27T07:18:45.642Z,42.76
2018-09-27T07:21:15.752Z,42.17
2018-09-27T07:23:45.983Z,42.58
2018-09-27T07:26:16.130Z,41.53
2018-09-27T07:28:46.308Z,41.28
2018-09-27T07:31:16.580Z,41.99
2018-09-27T07:33:46.611Z,40.60
2018-09-27T07:36:16.655Z,41.81
2018-09-27T07:38:46.775Z,42.25
2018-09-27T07:41:16.946Z,40.96
2018-09-27T07:43:47.075Z,40.15
2018-09-27T07:46:17.177Z,39.77
2018-09-27T07:48:47.236Z,40.63
2018-09-27T07:51:18.122Z,40.15
2018-09-27T07:53:48.298Z,40.65
2018-09-27T07:56:18.374Z,39.04
2018-09-27T07:58:48.486Z,38.04
2018-09-27T08:01:18.625Z,37.97
2018-09-27T08:03:48.783Z,37.19
2018-09-27T08:06:18.918Z,37.70
2018-09-27T08:08:48.987Z,36.67
2018-09-27T08:11:19.200Z,40.58
2018-09-27T08:13:49.363Z,40.31
2018-09-27T08:16:19.459Z,41.73
2018-09-27T08:18:49.557Z,38.94
2018-09-27T08:21:19.742Z,40.65
2018-09-27T08:23:49.799Z,42.11
2018-09-27T08:26:30.360Z,40.07
2018-09-27T08:29:00.442Z,40.29
2018-09-27T08:31:30.502Z,40.12
2018-09-27T08:34:00.601Z,40.99
2018-09-27T08:36:30.733Z,39.33
2018-09-27T08:39:00.873Z,40.08
2018-09-27T08:41:30.950Z,39.79
2018-09-27T08:44:01.186Z,39.95
2018-09-27T08:46:31.356Z,39.39
2018-09-27T08:49:02.419Z,39.84
2018-09-27T08:51:32.651Z,39.23
2018-09-27T08:54:02.879Z,35.71
2018-09-27T08:56:33.016Z,37.37
2018-09-27T08:59:03.256Z,37.97
2018-09-27T09:01:33.490Z,37.56
2018-09-27T09:04:03.606Z,37.68
2018-09-27T09:06:33.687Z,36.80
2018-09-27T09:09:09.199Z,34.48
2018-09-27T09:11:45.496Z,35.33
2018-09-27T09:14:15.759Z,36.82
2018-09-27T09:16:45.830Z,35.56
2018-09-27T09:19:15.899Z,34.92
2018-09-27T09:21:45.973Z,38.30
2018-09-27T09:24:16.176Z,40.03
2018-09-27T09:26:50.924Z,42.09
2018-09-27T09:29:25.505Z,42.63
2018-09-27T09:31:59.183Z,42.08
2018-09-27T09:34:40.969Z,40.45
2018-09-27T09:37:16.049Z,44.01
2018-09-27T09:39:52.239Z,43.43
2018-09-27T09:42:29.431Z,43.29
2018-09-27T09:45:02.898Z,45.18
2018-09-27T09:47:36.075Z,42.14
2018-09-27T09:50:17.437Z,45.64
2018-09-27T09:52:49.232Z,42.30
2018-09-27T09:55:27.274Z,43.16
2018-09-27T09:58:03.502Z,42.93
2018-09-27T10:00:38.772Z,42.73
2018-09-27T10:03:10.456Z,42.94
2018-09-27T10:05:40.635Z,42.84
2018-09-27T10:08:10.692Z,43.22
2018-09-27T10:10:40.851Z,43.43
2018-09-27T10:13:10.949Z,42.72
2018-09-27T10:15:41.060Z,42.06
2018-09-27T10:18:11.190Z,42.12
2018-09-27T10:20:41.300Z,42.11
2018-09-27T10:23:11.490Z,41.42
2018-09-27T10:25:41.613Z,43.75
2018-09-27T10:28:11.707Z,43.81
2018-09-27T10:30:41.788Z,42.61
2018-09-27T10:33:11.826Z,39.80
2018-09-27T10:35:42.040Z,44.13
2018-09-27T10:38:12.269Z,44.07
2018-09-27T10:40:42.387Z,40.69
2018-09-27T10:43:12.473Z,43.27
2018-09-27T10:45:42.620Z,42.66
2018-09-27T10:48:12.695Z,39.77
2018-09-27T10:50:42.856Z,39.79
2018-09-27T10:53:13.582Z,39.21
2018-09-27T10:55:43.669Z,38.88
2018-09-27T10:58:13.838Z,36.15
2018-09-27T11:00:43.987Z,37.45
2018-09-27T11:03:14.079Z,34.97
2018-09-27T11:05:44.259Z,34.23
2018-09-27T11:08:14.345Z,36.46
2018-09-27T11:10:44.508Z,34.39
2018-09-27T11:13:14.600Z,34.37
2018-09-27T11:15:44.691Z,34.36
2018-09-27T11:18:14.781Z,30.81
2018-09-27T11:20:44.963Z,34.56
2018-09-27T11:23:15.081Z,32.90
2018-09-27T11:25:45.157Z,33.13
2018-09-27T11:28:15.279Z,33.74
2018-09-27T11:30:45.478Z,35.22
2018-09-27T11:33:15.512Z,34.15
2018-09-27T11:35:45.633Z,32.87
2018-09-27T11:38:15.748Z,33.00
2018-09-27T11:40:46.040Z,31.85
2018-09-27T11:43:16.112Z,33.73
2018-09-27T11:45:46.276Z,32.01
2018-09-27T11:48:16.402Z,31.27
2018-09-27T11:50:46.527Z,29.43
2018-09-27T11:53:16.597Z,32.50
2018-09-27T11:55:46.727Z,31.67
2018-09-27T11:58:16.842Z,30.30
2018-09-27T12:00:46.979Z,31.08
2018-09-27T12:03:17.196Z,30.39
2018-09-27T12:05:47.343Z,30.37
2018-09-27T12:08:17.449Z,28.13
2018-09-27T12:10:47.988Z,29.17
2018-09-27T12:13:18.049Z,30.36
2018-09-27T12:15:48.156Z,30.50
2018-09-27T12:18:18.240Z,32.09
2018-09-27T12:20:48.539Z,29.83
2018-09-27T12:23:18.599Z,28.99
2018-09-27T12:25:48.677Z,29.63
2018-09-27T12:28:19.186Z,31.31
2018-09-27T12:30:49.392Z,31.81
2018-09-27T12:33:19.419Z,31.63
2018-09-27T12:35:49.529Z,29.06
2018-09-27T12:38:19.741Z,30.64
2018-09-27T12:40:49.890Z,30.42
2018-09-27T12:43:19.931Z,29.16
2018-09-27T12:45:50.114Z,30.48
2018-09-27T12:48:20.227Z,30.05
2018-09-27T12:50:50.372Z,30.53
2018-09-27T12:53:20.391Z,33.95
2018-09-27T12:55:50.524Z,32.30
2018-09-27T12:58:20.613Z,30.23
2018-09-27T13:00:50.748Z,29.44
2018-09-27T13:03:20.822Z,28.13
2018-09-27T13:05:50.983Z,28.90
2018-09-27T13:08:21.093Z,27.97
2018-09-27T13:10:51.245Z,29.36
2018-09-27T13:13:21.353Z,27.75
2018-09-27T13:15:51.524Z,30.79
2018-09-27T13:18:21.672Z,28.16
2018-09-27T13:20:51.850Z,29.14
2018-09-27T13:23:22.009Z,27.80
2018-09-27T13:25:52.168Z,28.71
2018-09-27T13:28:22.239Z,27.99
2018-09-27T13:30:52.583Z,32.08
2018-09-27T13:33:22.707Z,30.41
2018-09-27T13:35:52.841Z,30.91
2018-09-27T13:38:22.893Z,29.65
2018-09-27T13:40:52.937Z,30.58
2018-09-27T13:43:23.144Z,29.77
2018-09-27T13:45:53.198Z,28.90
2018-09-27T13:48:23.247Z,29.46
2018-09-27T13:50:53.588Z,29.47
2018-09-27T13:53:23.716Z,30.59
2018-09-27T13:55:53.880Z,29.69
2018-09-27T13:58:24.022Z,29.26
2018-09-27T14:00:54.220Z,30.79
2018-09-27T14:03:24.297Z,29.50
2018-09-27T14:05:54.413Z,29.08
2018-09-27T14:08:25.819Z,30.30
2018-09-27T14:10:55.902Z,31.33
2018-09-27T14:13:26.950Z,32.05
2018-09-27T14:15:57.020Z,32.09
2018-09-27T14:18:27.169Z,35.40
2018-09-27T14:20:57.267Z,34.16
2018-09-27T14:23:27.297Z,31.58
2018-09-27T14:25:57.426Z,32.52
2018-09-27T14:28:27.510Z,29.30
2018-09-27T14:30:57.661Z,33.48
2018-09-27T14:33:27.670Z,29.78
2018-09-27T14:35:57.798Z,30.38
2018-09-27T14:38:27.949Z,30.30
2018-09-27T14:40:58.060Z,28.32
2018-09-27T14:43:28.139Z,27.61
2018-09-27T14:45:58.251Z,27.51
2018-09-27T14:48:28.439Z,28.14
2018-09-27T14:50:58.629Z,29.22
2018-09-27T14:53:28.814Z,32.20
2018-09-27T14:55:58.908Z,29.55
2018-09-27T14:58:29.035Z,29.11
2018-09-27T15:00:59.210Z,28.84
2018-09-27T15:03:29.272Z,27.72
2018-09-27T15:05:59.392Z,28.36
2018-09-27T15:08:29.568Z,28.08
2018-09-27T15:10:59.654Z,27.25
2018-09-27T15:13:29.721Z,27.34
2018-09-27T15:15:59.801Z,28.37
2018-09-27T15:18:29.927Z,29.90
2018-09-27T15:21:00.135Z,27.52
2018-09-27T15:23:30.200Z,27.18
2018-09-27T15:26:00.249Z,26.02
2018-09-27T15:28:30.412Z,26.00
2018-09-27T15:31:00.483Z,24.93
2018-09-27T15:33:30.587Z,26.56
2018-09-27T15:36:00.661Z,26.30
2018-09-27T15:38:30.808Z,26.63
2018-09-27T15:41:00.882Z,26.89
2018-09-27T15:43:30.905Z,26.98
2018-09-27T15:46:01.087Z,27.36
2018-09-27T15:48:31.234Z,26.86
2018-09-27T15:51:01.491Z,27.89
2018-09-27T15:53:31.644Z,30.07
2018-09-27T15:56:01.977Z,30.02
2018-09-27T15:58:32.150Z,31.03
2018-09-27T16:01:02.420Z,32.82
2018-09-27T16:03:32.600Z,34.88
2018-09-27T16:06:02.751Z,34.79
2018-09-27T16:08:32.881Z,34.46
2018-09-27T16:11:02.982Z,35.75
2018-09-27T16:13:33.191Z,36.54
2018-09-27T16:16:03.315Z,39.10
2018-09-27T16:18:33.456Z,37.72
2018-09-27T16:21:03.609Z,38.09
2018-09-27T16:23:33.751Z,40.50
2018-09-27T16:26:03.910Z,39.81
2018-09-27T16:28:34.008Z,40.14
2018-09-27T16:31:04.168Z,40.34
2018-09-27T16:33:34.344Z,42.84
2018-09-27T16:36:04.556Z,45.35
2018-09-27T16:38:34.674Z,45.60
2018-09-27T16:41:04.772Z,46.24
2018-09-27T16:43:34.872Z,46.79
2018-09-27T16:46:04.991Z,46.35
2018-09-27T16:48:35.071Z,45.63
2018-09-27T16:51:05.172Z,45.20
2018-09-27T16:53:35.439Z,44.89
2018-09-27T16:56:05.523Z,45.56
2018-09-27T16:58:35.675Z,46.60
2018-09-27T17:01:05.848Z,47.30
2018-09-27T17:03:35.928Z,47.21
2018-09-27T17:06:06.063Z,47.52
2018-09-27T17:08:36.123Z,48.73
2018-09-27T17:11:06.297Z,48.76
2018-09-27T17:13:36.450Z,50.81
2018-09-27T17:16:06.590Z,51.32
2018-09-27T17:18:36.685Z,52.12
2018-09-27T17:21:06.850Z,52.95
2018-09-27T17:23:36.998Z,53.84
2018-09-27T17:26:07.161Z,56.57
2018-09-27T17:28:37.358Z,56.70
2018-09-27T17:31:07.607Z,56.82
2018-09-27T17:33:37.663Z,57.44
2018-09-27T17:36:07.894Z,57.84
2018-09-27T17:38:38.022Z,58.69
2018-09-27T17:41:08.680Z,59.30
2018-09-27T17:43:38.937Z,60.40
2018-09-27T17:46:09.064Z,61.68
2018-09-27T17:48:39.110Z,62.54
2018-09-27T17:51:09.286Z,62.76
2018-09-27T17:53:39.412Z,63.06
2018-09-27T17:56:09.529Z,62.97
2018-09-27T17:58:39.674Z,65.31
2018-09-27T18:01:09.970Z,65.48
2018-09-27T18:03:40.124Z,65.91
2018-09-27T18:06:10.297Z,66.02
2018-09-27T18:08:40.320Z,65.66
2018-09-27T18:11:10.549Z,65.89
2018-09-27T18:13:40.700Z,67.10
2018-09-27T18:16:11.004Z,69.89
2018-09-27T18:18:41.090Z,72.66
2018-09-27T18:21:11.302Z,73.77
2018-09-27T18:23:41.416Z,75.08
2018-09-27T18:26:11.591Z,75.62
2018-09-27T18:28:41.788Z,76.06
2018-09-27T18:31:11.906Z,77.00
2018-09-27T18:33:42.034Z,77.91
2018-09-27T18:36:12.195Z,79.69
2018-09-27T18:38:42.390Z,80.18
2018-09-27T18:41:12.679Z,79.84
2018-09-27T18:43:42.821Z,80.73
2018-09-27T18:46:12.963Z,80.83
2018-09-27T18:48:43.057Z,81.23
2018-09-27T18:51:13.288Z,82.17
2018-09-27T18:53:43.401Z,83.76
2018-09-27T18:56:13.516Z,83.76
2018-09-27T18:58:43.772Z,84.22
2018-09-27T19:01:13.962Z,84.85
2018-09-27T19:03:44.166Z,85.17
2018-09-27T19:06:14.293Z,85.92
2018-09-27T19:08:44.418Z,85.84
2018-09-27T19:11:14.648Z,86.31
2018-09-27T19:13:44.803Z,86.58
2018-09-27T19:16:15.049Z,86.78
2018-09-27T19:18:45.367Z,87.08
2018-09-27T19:21:15.586Z,87.63
2018-09-27T19:23:45.752Z,87.71
2018-09-27T19:26:15.886Z,88.30
2018-09-27T19:28:46.205Z,88.16
2018-09-27T19:31:16.437Z,88.47
2018-09-27T19:33:46.574Z,88.77
2018-09-27T19:36:16.687Z,88.86
2018-09-27T19:38:46.814Z,89.74
2018-09-27T19:41:16.952Z,90.20
2018-09-27T19:43:47.037Z,90.31
2018-09-27T19:46:17.290Z,90.82
2018-09-27T19:48:47.349Z,91.19
2018-09-27T19:51:17.460Z,91.56
2018-09-27T19:53:47.537Z,92.05
2018-09-27T19:56:17.567Z,92.44
2018-09-27T19:58:47.680Z,91.51
2018-09-27T20:01:17.819Z,91.93
2018-09-27T20:03:47.941Z,93.22
2018-09-27T20:06:18.085Z,93.22
2018-09-27T20:08:48.112Z,93.31
2018-09-27T20:11:18.211Z,93.76
2018-09-27T20:13:48.286Z,94.10
2018-09-27T20:16:18.575Z,94.73
2018-09-27T20:18:48.570Z,94.87
2018-09-27T20:21:18.730Z,95.33
2018-09-27T20:23:48.785Z,95.71
2018-09-27T20:26:18.859Z,96.09
2018-09-27T20:28:48.973Z,96.27
2018-09-27T20:31:19.188Z,96.82
2018-09-27T20:33:49.297Z,96.95
2018-09-27T20:36:19.578Z,97.37
2018-09-27T20:38:49.755Z,97.22
2018-09-27T20:41:19.961Z,97.76
2018-09-27T20:43:50.034Z,97.86
2018-09-27T20:46:20.498Z,98.13
2018-09-27T20:48:50.607Z,98.31
2018-09-27T20:51:20.743Z,98.60
2018-09-27T20:53:50.871Z,98.94
2018-09-27T20:56:21.077Z,99.01
2018-09-27T20:58:51.216Z,98.98
2018-09-27T21:01:21.381Z,98.71
2018-09-27T21:03:51.500Z,98.28
2018-09-27T21:06:21.779Z,98.06
2018-09-27T21:08:52.072Z,98.03
2018-09-27T21:11:22.170Z,98.09
2018-09-27T21:13:52.313Z,99.00
2018-09-27T21:16:22.516Z,98.96
2018-09-27T21:18:52.653Z,98.92
2018-09-27T21:21:22.796Z,98.28
2018-09-27T21:23:52.887Z,98.61
2018-09-27T21:26:23.076Z,98.81
2018-09-27T21:28:53.150Z,98.59
2018-09-27T21:31:23.270Z,98.61
2018-09-27T21:33:53.355Z,99.01
2018-09-27T21:36:23.499Z,99.41
2018-09-27T21:38:53.610Z,99.67
2018-09-27T21:41:23.719Z,99.45
2018-09-27T21:43:53.842Z,100.00
2018-09-27T21:46:23.886Z,100.00
2018-09-27T21:48:53.930Z,100.00
2018-09-27T21:51:24.053Z,100.00
2018-09-27T21:53:54.162Z,100.00
2018-09-27T21:56:24.378Z,100.00
2018-09-27T21:58:54.454Z,100.00
2018-09-27T22:01:24.593Z,100.00
2018-09-27T22:03:54.667Z,100.00
2018-09-27T22:06:24.882Z,100.00
2018-09-27T22:08:55.461Z,100.00
2018-09-27T22:11:25.537Z,100.00
2018-09-27T22:13:55.594Z,100.00
2018-09-27T22:16:25.687Z,100.00
2018-09-27T22:18:55.747Z,100.00
2018-09-27T22:21:25.941Z,100.00
2018-09-27T22:23:56.054Z,100.00
2018-09-27T22:26:27.725Z,100.00
2018-09-27T22:28:57.954Z,100.00
2018-09-27T22:31:28.283Z,100.00
2018-09-27T22:33:58.346Z,100.00
2018-09-27T22:36:28.449Z,100.00
2018-09-27T22:38:58.518Z,100.00
2018-09-27T22:41:28.602Z,100.00
2018-09-27T22:43:59.132Z,100.00
2018-09-27T22:46:29.220Z,100.00
2018-09-27T22:48:59.271Z,100.00
2018-09-27T22:51:29.408Z,100.00
2018-09-27T22:53:59.469Z,100.00
2018-09-27T22:56:29.610Z,100.00
2018-09-27T22:58:59.697Z,100.00
2018-09-27T23:01:29.755Z,100.00
2018-09-27T23:03:59.803Z,100.00
2018-09-27T23:06:29.856Z,100.00
2018-09-27T23:08:59.919Z,100.00
2018-09-27T23:11:33.589Z,100.00
2018-09-27T23:14:04.912Z,100.00
2018-09-27T23:16:35.038Z,100.00
2018-09-27T23:19:05.127Z,100.00
2018-09-27T23:21:35.293Z,100.00
2018-09-27T23:24:05.421Z,100.00
2018-09-27T23:26:35.591Z,100.00
2018-09-27T23:29:05.758Z,100.00
2018-09-27T23:31:35.834Z,100.00
2018-09-27T23:34:06.007Z,100.00
2018-09-27T23:36:36.127Z,100.00
2018-09-27T23:39:07.876Z,100.00
2018-09-27T23:41:38.214Z,100.00
2018-09-27T23:44:08.838Z,100.00
2018-09-27T23:46:39.207Z,100.00
2018-09-27T23:49:09.259Z,100.00
2018-09-27T23:51:39.362Z,100.00
2018-09-27T23:54:09.553Z,100.00
2018-09-27T23:56:39.742Z,100.00
2018-09-27T23:59:09.854Z,100.00
